GMFI weather

Public forecast

Using degrees Celsius for public forecast. Weather courtesy of forecast.io.

Current aviation weather report (METAR) for Ifrane Airport

Report is more than 6 hours old.

Retrieved 2016/05/22 17:00 UTC (4 years ago):

GMFI 221700Z 37006KT 9999 SCT016 23/08 Q1027 NOSIG

Closest aviation forecast (TAF) to Ifrane Airport

Closest forecast is Sa├»ss Airport, 26.8 nm (49.6 km) NNE. Retrieved 2020-08-11 00:21 UTC (23 minutes ago):

TAF GMFF 102300Z 1100/1206 30012KT 9999 RA SCT033 FEW040CB BECMG 1100/1102 NSW BECMG 1102/1104 20004KT CAVOK